Time;durP1;ratioP1;P1;durP2;ratioP2;P2;SDS_P1;SDS_P2;PMS_P1;PMS_P2;Temp;Humidity;BMP_temperature;BMP_pressure;BME280_temperature;BME280_humidity;BME280_pressure;Samples;Min_cycle;Max_cycle;Signal;HPM_P1;HPM_P2
2022/06/10 00:01:01;;;;;;;1.83;0.90;;;;;;;16.84;55.83;101768.81;4937000;28;97218;-50
2022/06/10 00:03:27;;;;;;;3.23;1.00;;;;;;;16.82;55.76;101774.13;4939150;28;97763;-49
2022/06/10 00:05:56;;;;;;;1.10;1.00;;;;;;;16.75;55.79;101771.88;4935896;28;97591;-50
2022/06/10 00:08:26;;;;;;;1.70;1.20;;;;;;;16.66;55.87;101775.66;4937412;28;97295;-50
2022/06/10 00:10:52;;;;;;;1.10;1.00;;;;;;;16.61;55.96;101770.09;4934585;28;96939;-50
2022/06/10 00:13:20;;;;;;;1.17;1.00;;;;;;;16.57;56.12;101775.16;4938479;28;97240;-49
2022/06/10 00:15:46;;;;;;;2.73;1.07;;;;;;;16.55;56.02;101774.91;4937020;28;96872;-50
2022/06/10 00:18:12;;;;;;;1.87;1.10;;;;;;;16.52;56.07;101775.91;4939409;28;97220;-50
2022/06/10 00:20:40;;;;;;;1.17;1.07;;;;;;;16.47;56.06;101772.63;4938019;28;98001;-50
2022/06/10 00:23:05;;;;;;;1.30;1.20;;;;;;;16.45;56.13;101774.38;4939903;28;98253;-50
2022/06/10 00:25:31;;;;;;;1.20;1.00;;;;;;;16.43;56.06;101779.69;4940783;28;97102;-50
2022/06/10 00:27:56;;;;;;;3.03;0.90;;;;;;;16.39;56.19;101781.97;4937247;28;96841;-50
2022/06/10 00:30:26;;;;;;;1.23;1.10;;;;;;;16.36;56.32;101783.72;4937834;28;99499;-50
2022/06/10 00:32:51;;;;;;;0.90;0.90;;;;;;;16.33;56.30;101779.19;4939028;28;101596;-50
2022/06/10 00:35:17;;;;;;;2.50;1.17;;;;;;;16.32;56.27;101782.47;4937687;28;97015;-50
2022/06/10 00:37:43;;;;;;;1.20;1.10;;;;;;;16.31;56.33;101780.97;4939264;28;97518;-49
2022/06/10 00:40:14;;;;;;;1.43;1.13;;;;;;;16.30;56.72;101779.44;4937981;28;97261;-50
2022/06/10 00:42:40;;;;;;;2.70;1.00;;;;;;;16.25;56.53;101780.94;4939640;28;97360;-50
2022/06/10 00:45:06;;;;;;;0.83;0.83;;;;;;;16.23;56.44;101786.25;4939408;28;97454;-50
2022/06/10 00:47:39;;;;;;;0.90;0.90;;;;;;;16.20;56.55;101787.28;4940400;28;96953;-50
2022/06/10 00:50:26;;;;;;;2.63;1.00;;;;;;;16.18;56.97;101794.59;4938793;28;98652;-50
2022/06/10 00:53:00;;;;;;;1.77;0.90;;;;;;;16.16;56.77;101799.88;4938543;28;102603;-50
2022/06/10 00:55:29;;;;;;;1.23;0.90;;;;;;;16.15;56.66;101799.13;4938867;28;97554;-50
2022/06/10 00:58:29;;;;;;;3.60;1.00;;;;;;;16.13;57.54;101793.31;4937911;28;96967;-50
2022/06/10 01:00:55;;;;;;;0.90;0.90;;;;;;;16.12;56.72;101807.72;4927437;28;100621;-50
2022/06/10 01:03:21;;;;;;;1.00;0.90;;;;;;;16.10;56.72;101802.63;4940024;28;97899;-50
2022/06/10 01:05:46;;;;;;;1.17;1.00;;;;;;;16.07;56.74;101806.44;4938701;28;97130;-50
2022/06/10 01:08:15;;;;;;;0.90;0.70;;;;;;;16.04;56.72;101810.22;4939646;28;97664;-50
2022/06/10 01:10:47;;;;;;;1.20;1.07;;;;;;;16.00;56.92;101806.94;4936986;28;97447;-52
2022/06/10 01:13:22;;;;;;;2.33;1.10;;;;;;;15.97;56.89;101812.69;4936343;28;97162;-52
2022/06/10 01:16:04;;;;;;;1.27;0.97;;;;;;;15.93;56.77;101815.75;4933479;28;96770;-51
2022/06/10 01:18:39;;;;;;;2.30;1.10;;;;;;;15.90;56.95;101818.75;4938282;28;96939;-51
2022/06/10 01:21:26;;;;;;;2.30;1.10;;;;;;;15.87;57.37;101812.19;4939682;28;101953;-51
2022/06/10 01:24:25;;;;;;;0.83;0.83;;;;;;;15.84;57.57;101813.19;4940098;28;103278;-51
2022/06/10 01:30:14;;;;;;;1.30;1.13;;;;;;;15.77;57.52;101822.75;4941605;28;96837;-52
2022/06/10 01:32:39;;;;;;;1.10;1.00;;;;;;;15.73;56.89;101827.03;4938751;28;100560;-51
2022/06/10 01:35:52;;;;;;;1.20;1.13;;;;;;;15.67;57.53;101823.47;4936002;28;97210;-51
2022/06/10 01:38:23;;;;;;;0.90;0.90;;;;;;;15.64;57.04;101821.69;4929605;28;97114;-51
2022/06/10 01:41:01;;;;;;;3.07;1.30;;;;;;;15.62;56.98;101827.75;4937733;28;97100;-50
2022/06/10 01:43:40;;;;;;;0.83;0.83;;;;;;;15.60;57.13;101823.94;4940793;28;100554;-50
2022/06/10 01:46:26;;;;;;;4.70;1.07;;;;;;;15.56;57.47;101829.75;4934315;28;101800;-49
2022/06/10 01:49:16;;;;;;;0.80;0.70;;;;;;;15.51;57.45;101832.47;4923987;28;99773;-51
2022/06/10 01:51:50;;;;;;;1.13;0.97;;;;;;;15.47;57.20;101831.97;4936800;28;97120;-51
2022/06/10 01:54:42;;;;;;;1.23;1.07;;;;;;;15.43;57.54;101829.44;4941714;28;97470;-51
2022/06/10 01:57:15;;;;;;;1.10;0.83;;;;;;;15.37;56.95;101831.41;4937441;28;102303;-52
2022/06/10 02:00:13;;;;;;;1.00;0.90;;;;;;;15.34;57.69;101824.06;4935548;28;97026;-51
2022/06/10 02:02:46;;;;;;;0.80;0.80;;;;;;;15.35;57.15;101835.94;4924382;28;97294;-52
2022/06/10 02:05:19;;;;;;;1.10;1.10;;;;;;;15.33;57.16;101832.91;4934592;28;101274;-51
2022/06/10 02:07:50;;;;;;;1.50;0.87;;;;;;;15.29;57.21;101837.91;4937656;28;101038;-51
2022/06/10 02:10:27;;;;;;;2.07;1.40;;;;;;;15.29;57.52;101837.91;4941970;28;97513;-51
2022/06/10 02:12:59;;;;;;;1.40;1.30;;;;;;;15.25;57.11;101842.91;4937700;28;96854;-50
2022/06/10 02:15:40;;;;;;;0.93;0.93;;;;;;;15.19;57.72;101848.44;4939043;28;101898;-51
2022/06/10 02:18:17;;;;;;;1.30;1.20;;;;;;;15.15;57.25;101838.84;4941899;28;101621;-51
2022/06/10 02:20:52;;;;;;;5.50;1.27;;;;;;;15.12;57.60;101845.34;4935759;28;97327;-51
2022/06/10 02:23:23;;;;;;;1.93;1.47;;;;;;;15.11;57.35;101849.41;4939059;28;98156;-51
2022/06/10 02:25:53;;;;;;;3.30;1.50;;;;;;;15.12;57.42;101850.91;4934786;28;98715;-49
2022/06/10 02:28:25;;;;;;;0.90;0.90;;;;;;;15.09;57.43;101855.44;4938536;28;97421;-51
2022/06/10 02:31:13;;;;;;;3.23;1.20;;;;;;;15.06;58.02;101850.13;4938972;28;96910;-51
2022/06/10 02:33:39;;;;;;;1.20;1.07;;;;;;;15.05;57.33;101848.59;4939719;28;97101;-52
2022/06/10 02:36:04;;;;;;;1.20;1.20;;;;;;;15.01;57.32;101852.34;4938510;28;97729;-51
2022/06/10 02:39:02;;;;;;;1.33;1.23;;;;;;;14.98;57.85;101845.03;4941687;28;97251;-49
2022/06/10 02:41:36;;;;;;;1.63;1.10;;;;;;;14.94;57.40;101838.19;4933951;28;96753;-51
2022/06/10 02:44:09;;;;;;;0.80;0.80;;;;;;;14.90;57.57;101846.75;4936162;28;96664;-51
2022/06/10 02:46:49;;;;;;;1.50;1.30;;;;;;;14.82;57.84;101851.22;4935096;28;97400;-51
2022/06/10 02:49:18;;;;;;;1.40;1.27;;;;;;;14.78;57.31;101849.94;4938629;28;97287;-51
2022/06/10 02:51:46;;;;;;;2.60;1.20;;;;;;;14.74;57.37;101852.91;4938431;28;96747;-52
2022/06/10 02:54:16;;;;;;;2.27;1.57;;;;;;;14.71;57.46;101850.38;4939826;28;97331;-51
2022/06/10 02:56:42;;;;;;;1.43;1.30;;;;;;;14.68;57.61;101862.41;4940076;28;97568;-51
2022/06/10 03:02:03;;;;;;;1.77;1.03;;;;;;;14.62;57.73;101864.38;4937624;28;97427;-51
2022/06/10 03:04:44;;;;;;;3.87;1.47;;;;;;;14.57;57.88;101868.63;4936507;28;97144;-49
2022/06/10 03:07:22;;;;;;;1.17;1.17;;;;;;;14.53;57.88;101862.56;4935995;28;102224;-51
2022/06/10 03:10:06;;;;;;;1.63;1.10;;;;;;;14.47;57.32;101860.97;4932410;28;101673;-51
2022/06/10 03:13:09;;;;;;;3.53;1.40;;;;;;;14.45;57.66;101858.72;4934064;28;97152;-51
2022/06/10 03:15:44;;;;;;;1.20;1.13;;;;;;;14.42;57.74;101872.75;4920459;28;96915;-52
2022/06/10 03:18:16;;;;;;;1.33;1.23;;;;;;;14.40;57.30;101870.50;4936674;28;98474;-48
2022/06/10 03:21:04;;;;;;;2.10;1.80;;;;;;;14.38;57.93;101869.44;4940471;28;98881;-49
2022/06/10 03:23:52;;;;;;;3.00;1.40;;;;;;;14.34;57.48;101871.69;4931016;28;97179;-51
2022/06/10 03:26:32;;;;;;;2.47;1.20;;;;;;;14.32;57.69;101871.41;4932416;28;97017;-51
2022/06/10 03:29:08;;;;;;;1.60;1.33;;;;;;;14.29;57.66;101878.69;4935860;28;102072;-51
2022/06/10 03:31:38;;;;;;;2.43;1.57;;;;;;;14.27;57.50;101873.63;4935711;28;100199;-52
2022/06/10 03:34:23;;;;;;;1.30;1.20;;;;;;;14.21;58.02;101880.34;4931189;28;97907;-51
2022/06/10 03:36:51;;;;;;;1.03;1.03;;;;;;;14.17;57.53;101880.56;4932823;28;96757;-51
2022/06/10 03:39:20;;;;;;;1.20;1.10;;;;;;;14.16;57.67;101883.81;4936223;28;97416;-51
2022/06/10 03:42:09;;;;;;;1.20;1.10;;;;;;;14.16;58.04;101889.34;4937473;28;97597;-54
2022/06/10 03:44:36;;;;;;;1.40;1.30;;;;;;;14.10;57.65;101883.75;4933865;28;96985;-51
2022/06/10 03:47:04;;;;;;;1.93;1.30;;;;;;;14.13;57.74;101891.06;4928090;28;96781;-50
2022/06/10 03:49:40;;;;;;;1.20;1.17;;;;;;;14.10;57.83;101881.00;4935480;28;97104;-51
2022/06/10 03:52:06;;;;;;;1.63;1.37;;;;;;;14.08;57.58;101885.50;4936707;28;97235;-50
2022/06/10 03:54:31;;;;;;;1.30;1.30;;;;;;;14.08;57.74;101896.56;4936359;28;97101;-51
2022/06/10 03:56:57;;;;;;;1.80;1.17;;;;;;;14.04;57.62;101896.75;4921261;28;97644;-52
2022/06/10 03:59:22;;;;;;;2.30;1.30;;;;;;;14.03;57.75;101898.00;4936273;28;97308;-48
2022/06/10 04:01:48;;;;;;;1.20;1.10;;;;;;;14.01;57.64;101900.50;4935581;28;97627;-51
2022/06/10 04:04:14;;;;;;;1.43;1.07;;;;;;;14.00;57.98;101901.75;4936749;28;96932;-51
2022/06/10 04:06:39;;;;;;;1.43;1.33;;;;;;;14.01;57.89;101900.50;4933262;28;96977;-51
2022/06/10 04:09:05;;;;;;;1.50;1.40;;;;;;;14.02;57.83;101902.00;4932881;28;96970;-49
2022/06/10 04:11:31;;;;;;;1.13;1.13;;;;;;;14.02;57.86;101896.47;4939849;28;97725;-50
2022/06/10 04:13:56;;;;;;;1.23;1.13;;;;;;;14.01;57.82;101906.03;4930196;28;97171;-51
2022/06/10 04:16:21;;;;;;;1.70;1.17;;;;;;;14.00;57.75;101912.06;4932416;28;97341;-51
2022/06/10 04:18:47;;;;;;;1.10;1.00;;;;;;;13.99;57.91;101907.78;4935468;28;97577;-49
2022/06/10 04:21:12;;;;;;;1.20;1.10;;;;;;;14.01;57.94;101910.81;4929484;28;98292;-51
2022/06/10 04:23:37;;;;;;;1.20;1.20;;;;;;;14.01;57.83;101916.34;4935703;28;97207;-51
2022/06/10 04:26:03;;;;;;;1.23;1.20;;;;;;;14.01;57.93;101922.66;4936414;28;97234;-52
2022/06/10 04:28:29;;;;;;;1.37;1.37;;;;;;;14.02;58.10;101937.25;4934361;28;97318;-50
2022/06/10 04:30:55;;;;;;;1.63;1.30;;;;;;;14.04;57.97;101920.91;4934458;28;97510;-51
2022/06/10 04:33:20;;;;;;;0.97;0.87;;;;;;;14.06;58.05;101918.44;4932520;28;97326;-51
2022/06/10 04:35:48;;;;;;;1.40;1.30;;;;;;;14.07;58.05;101925.47;4934022;28;96967;-51
2022/06/10 04:38:16;;;;;;;4.73;1.17;;;;;;;14.09;58.21;101925.75;4934890;28;97727;-51
2022/06/10 04:40:42;;;;;;;1.60;1.17;;;;;;;14.09;58.24;101925.75;4933587;28;98487;-52
2022/06/10 04:43:09;;;;;;;6.83;1.10;;;;;;;14.12;58.14;101924.78;4931820;28;96833;-51
2022/06/10 04:45:44;;;;;;;1.13;1.07;;;;;;;14.15;58.32;101932.13;4935879;28;96811;-50
2022/06/10 04:48:11;;;;;;;1.17;1.00;;;;;;;14.17;58.15;101929.63;4938331;28;101682;-51
2022/06/10 04:50:37;;;;;;;2.13;1.60;;;;;;;14.18;58.14;101931.13;4934631;28;98568;-51
2022/06/10 04:53:03;;;;;;;1.00;0.90;;;;;;;14.19;58.15;101933.44;4936546;28;97335;-52
2022/06/10 04:55:28;;;;;;;1.23;1.20;;;;;;;14.20;58.34;101940.47;4938416;28;96863;-51
2022/06/10 04:57:55;;;;;;;1.20;1.20;;;;;;;14.24;58.43;101937.50;4938370;28;97103;-51
2022/06/10 05:00:28;;;;;;;1.80;1.27;;;;;;;14.27;58.49;101940.06;4938083;28;97011;-51
2022/06/10 05:02:53;;;;;;;1.30;0.97;;;;;;;14.30;58.54;101943.91;4938987;28;97132;-51
2022/06/10 05:05:19;;;;;;;1.10;1.10;;;;;;;14.33;58.56;101942.91;4942652;28;97071;-51
2022/06/10 05:07:44;;;;;;;1.03;1.03;;;;;;;14.37;58.53;101946.25;4942652;28;97159;-51
2022/06/10 05:10:12;;;;;;;1.37;1.27;;;;;;;14.43;58.61;101949.06;4940294;28;97543;-52
2022/06/10 05:12:37;;;;;;;1.23;0.93;;;;;;;14.48;58.59;101953.91;4940232;28;98409;-52
2022/06/10 05:15:03;;;;;;;1.33;1.23;;;;;;;14.51;58.67;101952.91;4938834;28;97031;-50
2022/06/10 05:17:28;;;;;;;1.13;1.00;;;;;;;14.56;58.71;101944.69;4934085;28;96936;-50
2022/06/10 05:19:53;;;;;;;1.17;1.17;;;;;;;14.61;58.79;101954.28;4938989;28;98685;-50
2022/06/10 05:22:19;;;;;;;1.93;1.07;;;;;;;14.68;58.61;101948.28;4936168;28;96913;-51
2022/06/10 05:24:44;;;;;;;3.00;1.20;;;;;;;14.75;58.91;101951.41;4941443;28;96965;-50
2022/06/10 05:27:10;;;;;;;1.60;1.50;;;;;;;14.81;59.06;101951.44;4928766;28;97426;-50
2022/06/10 05:29:36;;;;;;;1.63;1.37;;;;;;;14.90;59.04;101949.28;4942786;28;97327;-50
2022/06/10 05:32:01;;;;;;;4.10;0.90;;;;;;;14.98;58.94;101953.09;4939124;28;97073;-50
2022/06/10 05:34:46;;;;;;;2.10;1.00;;;;;;;15.09;59.12;101957.25;4940213;28;97232;-50
2022/06/10 05:37:22;;;;;;;0.90;0.90;;;;;;;15.20;59.25;101954.56;4935930;28;98608;-50
2022/06/10 05:39:47;;;;;;;2.23;1.20;;;;;;;15.31;59.17;101958.16;4932280;28;98167;-50
2022/06/10 05:42:13;;;;;;;1.40;1.23;;;;;;;15.43;59.29;101956.22;4935392;28;97337;-51
2022/06/10 05:44:44;;;;;;;1.07;1.07;;;;;;;15.52;59.45;101959.59;4937626;28;96997;-50
2022/06/10 05:47:13;;;;;;;1.00;1.00;;;;;;;15.63;59.29;101948.56;4934295;28;104534;-50
2022/06/10 05:49:42;;;;;;;1.10;0.93;;;;;;;15.74;59.33;101956.19;4912956;28;97266;-50
2022/06/10 05:52:10;;;;;;;1.70;0.97;;;;;;;15.89;59.34;101956.00;4915579;28;97604;-51
2022/06/10 05:54:38;;;;;;;1.70;1.40;;;;;;;15.99;59.33;101960.84;4940072;28;97545;-50
2022/06/10 05:57:03;;;;;;;1.50;1.40;;;;;;;16.12;59.35;101963.94;4940189;28;97501;-50
2022/06/10 05:59:29;;;;;;;1.63;1.30;;;;;;;16.27;59.38;101958.19;4939527;28;97311;-51
2022/06/10 06:01:56;;;;;;;2.67;1.50;;;;;;;16.39;59.50;101963.28;4936087;28;97085;-50
2022/06/10 06:04:22;;;;;;;2.90;1.37;;;;;;;16.55;59.36;101972.19;4937262;28;97405;-51
2022/06/10 06:06:47;;;;;;;3.77;2.00;;;;;;;16.67;59.58;101970.94;4937401;28;97444;-50
2022/06/10 06:09:14;;;;;;;1.90;1.80;;;;;;;16.81;59.67;101967.19;4936444;28;97495;-50
2022/06/10 06:11:41;;;;;;;2.90;2.00;;;;;;;16.93;59.62;101971.47;4943334;28;97185;-50
2022/06/10 06:14:06;;;;;;;2.70;1.73;;;;;;;17.05;59.61;101965.44;4939385;28;96797;-50
2022/06/10 06:16:32;;;;;;;4.17;1.87;;;;;;;17.18;59.69;101962.91;4933651;28;97297;-51
2022/06/10 06:18:57;;;;;;;3.43;2.17;;;;;;;17.31;59.53;101969.97;4938502;28;98508;-50
2022/06/10 06:21:23;;;;;;;4.10;2.10;;;;;;;17.43;59.64;101965.91;4935584;28;97264;-50
2022/06/10 06:23:48;;;;;;;3.83;2.17;;;;;;;17.56;59.41;101971.72;4934883;28;97305;-50
2022/06/10 06:26:15;;;;;;;4.17;2.47;;;;;;;17.71;59.27;101967.38;4937876;28;97485;-50
2022/06/10 06:28:42;;;;;;;6.17;2.73;;;;;;;17.83;59.32;101970.88;4939277;28;97814;-50
2022/06/10 06:31:08;;;;;;;3.27;2.40;;;;;;;17.96;58.97;101971.09;4935099;28;97452;-50
2022/06/10 06:33:33;;;;;;;2.07;1.97;;;;;;;18.11;58.94;101968.03;4934299;28;97123;-50
2022/06/10 06:35:59;;;;;;;2.70;2.00;;;;;;;18.22;58.70;101967.94;4940023;28;97502;-50
2022/06/10 06:38:26;;;;;;;2.40;1.80;;;;;;;18.34;58.40;101975.00;4932919;28;97595;-50
2022/06/10 06:40:51;;;;;;;4.40;1.90;;;;;;;18.46;58.36;101971.66;4936838;28;97438;-50
2022/06/10 06:43:17;;;;;;;3.43;2.27;;;;;;;18.54;58.44;101967.03;4938488;28;96971;-50
2022/06/10 06:45:43;;;;;;;2.00;1.17;;;;;;;18.65;58.39;101977.38;4936648;28;98301;-50
2022/06/10 06:48:09;;;;;;;2.67;1.83;;;;;;;18.75;58.33;101970.22;4934979;28;97147;-50
2022/06/10 06:50:39;;;;;;;3.60;1.70;;;;;;;18.87;58.11;101974.41;4936253;28;96608;-50
2022/06/10 06:53:04;;;;;;;1.93;1.73;;;;;;;18.99;57.98;101969.53;4937644;28;97430;-50
2022/06/10 06:55:30;;;;;;;2.80;1.27;;;;;;;19.10;57.88;101975.78;4934826;28;97440;-51
2022/06/10 06:57:55;;;;;;;7.67;2.00;;;;;;;19.21;57.43;101974.91;4938193;28;97167;-50
2022/06/10 07:00:21;;;;;;;4.57;1.87;;;;;;;19.32;56.99;101975.59;4938698;28;97475;-50
2022/06/10 07:02:47;;;;;;;5.07;1.50;;;;;;;19.41;56.49;101974.53;4925052;28;97105;-50
2022/06/10 07:05:13;;;;;;;5.30;1.63;;;;;;;19.52;56.41;101968.06;4933002;28;96879;-51
2022/06/10 07:07:41;;;;;;;4.80;1.30;;;;;;;19.63;56.34;101965.94;4931553;28;101681;-51
2022/06/10 07:10:08;;;;;;;2.30;1.17;;;;;;;19.71;55.68;101971.66;4936747;28;96707;-50
2022/06/10 07:12:33;;;;;;;2.20;1.20;;;;;;;19.80;55.58;101971.31;4935939;28;97802;-51
2022/06/10 07:14:59;;;;;;;4.83;1.70;;;;;;;19.91;55.26;101971.19;4933493;28;97869;-50
2022/06/10 07:17:25;;;;;;;1.97;1.20;;;;;;;19.99;55.04;101967.28;4935890;28;97441;-51
2022/06/10 07:19:52;;;;;;;4.93;1.27;;;;;;;20.09;54.81;101970.47;4943406;28;97471;-49
2022/06/10 07:22:17;;;;;;;1.60;1.00;;;;;;;20.19;54.56;101974.41;4932199;28;97081;-50
2022/06/10 07:24:43;;;;;;;1.90;0.83;;;;;;;20.28;54.32;101976.84;4936081;28;97185;-49
2022/06/10 07:27:09;;;;;;;1.60;0.90;;;;;;;20.38;54.20;101975.19;4935691;28;96965;-50
2022/06/10 07:29:35;;;;;;;4.30;1.50;;;;;;;20.46;53.64;101973.31;4935196;28;97177;-51
2022/06/10 07:32:00;;;;;;;3.13;1.00;;;;;;;20.56;53.30;101973.66;4943771;28;97261;-50
2022/06/10 07:34:25;;;;;;;1.60;1.40;;;;;;;20.67;52.99;101970.72;4935667;28;99227;-50
2022/06/10 07:36:51;;;;;;;4.10;1.20;;;;;;;20.76;53.11;101967.53;4935285;28;97083;-51
2022/06/10 07:39:17;;;;;;;10.47;1.47;;;;;;;20.86;52.93;101974.97;4934638;28;97394;-51
2022/06/10 07:42:00;;;;;;;2.30;1.20;;;;;;;20.98;52.52;101972.78;4939244;28;97252;-50
2022/06/10 07:44:35;;;;;;;2.40;0.80;;;;;;;21.10;52.29;101971.31;4934233;28;101862;-50
2022/06/10 07:47:07;;;;;;;1.23;0.80;;;;;;;21.21;51.99;101976.72;4936428;28;97280;-49
2022/06/10 07:49:33;;;;;;;2.30;0.90;;;;;;;21.30;51.94;101970.72;4933781;28;97614;-50
2022/06/10 07:51:58;;;;;;;2.23;0.70;;;;;;;21.39;51.44;101983.53;4933311;28;96729;-50
2022/06/10 07:54:24;;;;;;;1.67;0.93;;;;;;;21.47;51.14;101984.44;4932709;28;97751;-50
2022/06/10 07:56:50;;;;;;;3.87;1.10;;;;;;;21.56;51.28;101976.34;4928682;28;96814;-49
2022/06/10 07:59:15;;;;;;;4.70;1.00;;;;;;;21.67;51.05;101977.44;4936587;28;96998;-50
2022/06/10 08:01:41;;;;;;;5.80;1.10;;;;;;;21.75;50.68;101972.69;4937818;28;97194;-49
2022/06/10 08:04:08;;;;;;;1.90;0.87;;;;;;;21.81;50.32;101979.72;4937611;28;97484;-49
2022/06/10 08:06:36;;;;;;;4.53;1.10;;;;;;;21.89;50.27;101969.38;4937122;28;97487;-49
2022/06/10 08:09:03;;;;;;;1.07;0.80;;;;;;;21.99;50.18;101973.25;4937885;28;98424;-50
2022/06/10 08:11:28;;;;;;;3.50;1.30;;;;;;;22.07;50.03;101968.50;4936326;28;97041;-50
2022/06/10 08:13:54;;;;;;;4.77;1.03;;;;;;;22.16;49.95;101959.66;4934246;28;96740;-50
2022/06/10 08:16:19;;;;;;;2.70;0.87;;;;;;;22.25;49.67;101966.84;4935701;28;98528;-50
2022/06/10 08:18:46;;;;;;;1.73;1.03;;;;;;;22.34;49.60;101969.94;4931381;28;97028;-50
2022/06/10 08:23:56;;;;;;;5.50;1.20;;;;;;;22.49;49.16;101966.56;4935126;28;102108;-51
2022/06/10 08:26:24;;;;;;;3.67;1.60;;;;;;;22.58;48.74;101957.69;4938142;28;97057;-50
2022/06/10 08:28:49;;;;;;;2.37;1.47;;;;;;;22.65;48.64;101954.22;4943494;28;97878;-50
2022/06/10 08:31:15;;;;;;;2.63;1.47;;;;;;;22.69;48.57;101960.28;4939991;28;96974;-50
2022/06/10 08:33:41;;;;;;;5.67;1.37;;;;;;;22.76;48.38;101953.97;4939803;28;98607;-50
2022/06/10 08:36:07;;;;;;;1.10;1.00;;;;;;;22.78;48.15;101956.25;4936708;28;98351;-51
2022/06/10 08:38:33;;;;;;;2.30;1.13;;;;;;;22.86;48.25;101954.25;4937735;28;96835;-51
2022/06/10 08:41:10;;;;;;;2.47;1.20;;;;;;;22.97;47.52;101957.53;4939682;28;96678;-50
2022/06/10 08:43:39;;;;;;;3.33;1.30;;;;;;;23.10;47.68;101951.09;4940272;28;100558;-49
2022/06/10 08:46:44;;;;;;;5.30;1.20;;;;;;;23.24;47.06;101957.38;4944929;28;102986;-50
2022/06/10 08:49:09;;;;;;;3.63;1.17;;;;;;;23.35;47.52;101951.50;4939197;28;97353;-50
2022/06/10 08:51:45;;;;;;;9.47;1.67;;;;;;;23.46;47.06;101951.22;4955277;28;100431;-50
2022/06/10 08:54:34;;;;;;;2.30;1.30;;;;;;;23.51;46.56;101953.88;4938896;28;98704;-49
2022/06/10 08:57:06;;;;;;;3.80;1.63;;;;;;;23.43;46.62;101953.06;4932661;28;102911;-49
2022/06/10 08:59:43;;;;;;;6.80;1.70;;;;;;;23.46;46.59;101962.44;4940436;28;96652;-48
2022/06/10 09:02:08;;;;;;;4.07;1.23;;;;;;;23.50;47.21;101949.53;4937401;28;97339;-49
2022/06/10 09:04:52;;;;;;;3.13;1.43;;;;;;;23.63;46.49;101955.06;4941671;28;97830;-49
2022/06/10 09:07:38;;;;;;;2.40;1.27;;;;;;;23.85;46.25;101951.63;4941273;28;97114;-49
2022/06/10 09:10:07;;;;;;;4.90;1.63;;;;;;;24.12;46.85;101951.38;4939782;28;97217;-49
2022/06/10 09:13:10;;;;;;;4.00;1.20;;;;;;;24.34;45.64;101951.47;4938972;28;98638;-49
2022/06/10 09:15:45;;;;;;;3.33;1.80;;;;;;;24.43;45.29;101947.38;4939539;28;100574;-49
2022/06/10 09:18:27;;;;;;;2.43;1.03;;;;;;;24.35;46.07;101943.78;4938107;28;102661;-51
2022/06/10 09:21:24;;;;;;;2.87;1.10;;;;;;;24.53;45.15;101943.44;4941722;28;97300;-50
2022/06/10 09:23:54;;;;;;;2.40;1.27;;;;;;;24.72;45.47;101939.56;4926647;28;98031;-49
2022/06/10 09:26:35;;;;;;;3.53;1.47;;;;;;;24.84;44.69;101952.72;4939416;28;100443;-49
2022/06/10 09:29:01;;;;;;;2.20;1.20;;;;;;;24.79;45.09;101950.84;4941061;28;97180;-49
2022/06/10 09:31:37;;;;;;;2.40;1.40;;;;;;;24.65;44.29;101946.66;4941559;28;97550;-50
2022/06/10 09:34:08;;;;;;;4.17;1.70;;;;;;;24.50;44.56;101944.59;4939087;28;97767;-49
2022/06/10 09:36:47;;;;;;;2.30;1.23;;;;;;;24.32;44.68;101944.91;4935027;28;97678;-50
2022/06/10 09:42:17;;;;;;;1.80;0.90;;;;;;;24.03;44.98;101963.13;4935285;28;97210;-49
2022/06/10 09:45:03;;;;;;;3.60;1.50;;;;;;;23.98;44.54;101958.44;4938314;28;97128;-49
2022/06/10 09:47:56;;;;;;;2.63;1.03;;;;;;;23.96;44.88;101958.25;4934758;28;100816;-49
2022/06/10 09:50:51;;;;;;;3.47;1.30;;;;;;;24.02;44.91;101956.00;4936672;28;100982;-49
2022/06/10 09:53:41;;;;;;;5.37;1.60;;;;;;;24.02;44.50;101956.00;4936814;28;96964;-49
2022/06/10 09:56:37;;;;;;;3.63;1.20;;;;;;;24.09;45.04;101953.25;4933668;28;97353;-50
2022/06/10 09:59:14;;;;;;;3.50;1.20;;;;;;;24.26;45.11;101956.34;4936275;28;100694;-49
2022/06/10 10:01:56;;;;;;;3.10;1.37;;;;;;;24.60;44.77;101953.22;4933909;28;101630;-49
2022/06/10 10:04:46;;;;;;;3.03;1.60;;;;;;;24.71;44.24;101949.28;4934160;28;96850;-50
2022/06/10 10:07:23;;;;;;;2.17;1.13;;;;;;;24.86;44.59;101950.09;4935506;28;97161;-49
2022/06/10 10:10:16;;;;;;;2.40;1.07;;;;;;;24.97;43.42;101944.09;4935838;28;102128;-49
2022/06/10 10:12:53;;;;;;;1.77;1.30;;;;;;;25.03;43.89;101941.84;4940365;28;101693;-49
2022/06/10 10:15:51;;;;;;;1.93;1.10;;;;;;;25.01;43.59;101946.56;4938396;28;97217;-49
2022/06/10 10:18:22;;;;;;;8.43;1.17;;;;;;;25.05;43.47;101944.13;4932147;28;97255;-49
2022/06/10 10:20:58;;;;;;;1.57;0.90;;;;;;;25.11;43.25;101939.78;4939274;28;97503;-49
2022/06/10 10:23:33;;;;;;;3.10;1.00;;;;;;;25.33;42.80;101943.16;4931963;28;98550;-49
2022/06/10 10:25:59;;;;;;;2.20;1.03;;;;;;;25.51;43.89;101939.22;4936334;28;96983;-50
2022/06/10 10:28:30;;;;;;;2.20;0.80;;;;;;;25.75;43.16;101947.03;4933545;28;97579;-49
2022/06/10 10:30:59;;;;;;;1.77;0.87;;;;;;;25.87;42.46;101948.13;4936721;28;97335;-49
2022/06/10 10:33:25;;;;;;;1.00;0.80;;;;;;;25.93;42.70;101943.00;4937417;28;98432;-50
2022/06/10 10:35:54;;;;;;;1.83;0.67;;;;;;;25.95;42.43;101943.19;4936921;28;97024;-50
2022/06/10 10:38:31;;;;;;;1.90;1.00;;;;;;;26.00;41.51;101948.63;4939871;28;96669;-51
2022/06/10 10:40:57;;;;;;;7.60;0.97;;;;;;;26.13;42.61;101944.09;4943083;28;98069;-50
2022/06/10 10:43:29;;;;;;;1.30;1.13;;;;;;;26.22;41.93;101946.31;4936580;28;97191;-49
2022/06/10 10:46:26;;;;;;;2.37;1.13;;;;;;;26.29;41.43;101943.44;4934467;28;96852;-49
2022/06/10 10:48:53;;;;;;;1.40;1.00;;;;;;;26.27;42.49;101946.09;4942034;28;97391;-49
2022/06/10 10:51:26;;;;;;;1.37;1.00;;;;;;;26.22;41.41;101932.94;4931861;28;97792;-49
2022/06/10 10:53:55;;;;;;;3.63;1.00;;;;;;;26.08;42.49;101933.75;4938349;28;96969;-49
2022/06/10 10:56:29;;;;;;;1.50;1.23;;;;;;;25.89;42.10;101937.00;4936167;28;97119;-49
2022/06/10 10:58:56;;;;;;;1.63;1.10;;;;;;;25.80;42.81;101940.41;4940136;28;102166;-49
2022/06/10 11:01:46;;;;;;;4.07;1.30;;;;;;;25.83;41.80;101940.06;4933922;28;97174;-49
2022/06/10 11:04:16;;;;;;;4.00;1.63;;;;;;;25.80;42.56;101940.41;4936175;28;100198;-51
2022/06/10 11:06:41;;;;;;;2.20;1.13;;;;;;;25.85;43.06;101940.22;4935870;28;97426;-50
2022/06/10 11:09:17;;;;;;;2.90;1.13;;;;;;;25.92;41.83;101933.81;4940614;28;97425;-49
2022/06/10 11:11:44;;;;;;;3.17;1.20;;;;;;;25.91;42.42;101942.81;4934362;28;100841;-49
2022/06/10 11:14:21;;;;;;;3.30;1.47;;;;;;;25.86;41.95;101941.72;4941041;28;97216;-49
2022/06/10 11:17:05;;;;;;;3.87;1.00;;;;;;;25.80;41.74;101954.53;4935404;28;97013;-49
2022/06/10 11:19:33;;;;;;;1.13;0.87;;;;;;;25.79;42.41;101950.22;4939099;28;96921;-49
2022/06/10 11:22:01;;;;;;;3.47;1.33;;;;;;;25.78;42.44;101949.47;4939354;28;99647;-50
2022/06/10 11:24:29;;;;;;;1.97;1.30;;;;;;;25.85;42.71;101942.28;4935839;28;98156;-49
2022/06/10 11:27:14;;;;;;;4.43;1.40;;;;;;;25.98;42.05;101950.53;4937794;28;96886;-49
2022/06/10 11:29:41;;;;;;;1.80;1.00;;;;;;;26.13;42.55;101947.66;4934752;28;97117;-50
2022/06/10 11:32:06;;;;;;;3.10;1.13;;;;;;;26.24;42.41;101947.22;4937776;28;97029;-54
2022/06/10 11:34:39;;;;;;;5.20;1.50;;;;;;;26.25;41.69;101943.09;4936008;28;98456;-49
2022/06/10 11:37:26;;;;;;;3.27;1.07;;;;;;;26.25;41.41;101953.63;4934804;28;96922;-49
2022/06/10 11:40:05;;;;;;;2.67;0.87;;;;;;;26.22;41.98;101949.88;4936473;28;97749;-49
2022/06/10 11:42:46;;;;;;;1.80;0.80;;;;;;;26.18;41.38;101948.78;4938290;28;96993;-49
2022/06/10 11:45:19;;;;;;;2.50;1.20;;;;;;;26.24;41.38;101952.88;4937887;28;97803;-50
2022/06/10 11:47:52;;;;;;;2.00;0.90;;;;;;;26.28;41.79;101946.81;4936043;28;96777;-49
2022/06/10 11:50:25;;;;;;;2.70;1.17;;;;;;;26.32;41.40;101964.88;4936358;28;96813;-50
2022/06/10 11:53:09;;;;;;;2.43;1.07;;;;;;;26.33;40.84;101957.91;4936020;28;100640;-49
2022/06/10 11:55:38;;;;;;;3.50;1.17;;;;;;;26.32;41.66;101947.94;4932928;28;100830;-50
2022/06/10 12:01:33;;;;;;;1.70;0.70;;;;;;;26.50;41.69;101943.88;4902029;28;97166;-49